Aviation Digital Data Service (ADDS)

Output produced by METARs form (0022 UTC 25 April 2019)
found at http://www.aviationweather.gov/metar/data/
 
METAR text: EHVK 242355Z AUTO 14008KT 110V180 9999 NCD 10/08 Q1004 BLU
Conditions at: EHVK (VOLKEL RNLAFB , NL) observed 2355 UTC 24 April 2019
Temperature: 10.0°C (50°F)
Dewpoint: 8.0°C (46°F) [RH = 87%]
Pressure (altimeter): 29.65 inches Hg (1004.0 mb)
Winds: from the SE (140 degrees) at 9 MPH (8 knots; 4.1 m/s)
Visibility: 6 or more miles (10+ km)
Ceiling: at least 12,000 feet AGL
Clouds: sky clear below 12,000 feet AGL
Weather: no significant weather observed at this time

METAR text: EHVK 242325Z AUTO 15008KT 120V190 9999 NCD 10/09 Q1004 BLU
Conditions at: EHVK (VOLKEL RNLAFB , NL) observed 2325 UTC 24 April 2019
Temperature: 10.0°C (50°F)
Dewpoint: 9.0°C (48°F) [RH = 93%]
Pressure (altimeter): 29.65 inches Hg (1004.0 mb)
Winds: from the SSE (150 degrees) at 9 MPH (8 knots; 4.1 m/s)
Visibility: 6 or more miles (10+ km)
Ceiling: at least 12,000 feet AGL
Clouds: sky clear below 12,000 feet AGL
Weather: no significant weather observed at this time

METAR text: EHVK 242255Z AUTO 15007KT 120V180 9999 OVC190 10/09 Q1004 BLU
Conditions at: EHVK (VOLKEL RNLAFB , NL) observed 2255 UTC 24 April 2019
Temperature: 10.0°C (50°F)
Dewpoint: 9.0°C (48°F) [RH = 93%]
Pressure (altimeter): 29.65 inches Hg (1004.0 mb)
Winds: from the SSE (150 degrees) at 8 MPH (7 knots; 3.6 m/s)
Visibility: 6 or more miles (10+ km)
Ceiling: 19000 feet AGL
Clouds: overcast cloud deck at 19000 feet AGL
Weather: no significant weather observed at this time

METAR text: EHVK 242225Z AUTO 14007KT 120V190 9999 SCT051 BKN057 BKN062 11/09 Q1004 BLU
Conditions at: EHVK (VOLKEL RNLAFB , NL) observed 2225 UTC 24 April 2019
Temperature: 11.0°C (52°F)
Dewpoint: 9.0°C (48°F) [RH = 87%]
Pressure (altimeter): 29.65 inches Hg (1004.0 mb)
Winds: from the SE (140 degrees) at 8 MPH (7 knots; 3.6 m/s)
Visibility: 6 or more miles (10+ km)
Ceiling: 5700 feet AGL
Clouds: scattered clouds at 5100 feet AGL
broken clouds at 5700 feet AGL
broken clouds at 6200 feet AGL
Weather: no significant weather observed at this time

METAR text: EHVK 242155Z AUTO 15006KT 130V190 9999 FEW037 SCT069 OVC100 10/09 Q1004 BLU
Conditions at: EHVK (VOLKEL RNLAFB , NL) observed 2155 UTC 24 April 2019
Temperature: 10.0°C (50°F)
Dewpoint: 9.0°C (48°F) [RH = 93%]
Pressure (altimeter): 29.65 inches Hg (1004.0 mb)
Winds: from the SSE (150 degrees) at 7 MPH (6 knots; 3.1 m/s)
Visibility: 6 or more miles (10+ km)
Ceiling: 10000 feet AGL
Clouds: few clouds at 3700 feet AGL
scattered clouds at 6900 feet AGL
overcast cloud deck at 10000 feet AGL
Weather: no significant weather observed at this time

METAR text: EHVK 242138Z AUTO 15006KT 120V190 9999 FEW054 OVC100 11/10 Q1004 BLU
Conditions at: EHVK (VOLKEL RNLAFB , NL) observed 2138 UTC 24 April 2019
Temperature: 11.0°C (52°F)
Dewpoint: 10.0°C (50°F) [RH = 94%]
Pressure (altimeter): 29.65 inches Hg (1004.0 mb)
Winds: from the SSE (150 degrees) at 7 MPH (6 knots; 3.1 m/s)
Visibility: 6 or more miles (10+ km)
Ceiling: 10000 feet AGL
Clouds: few clouds at 5400 feet AGL
overcast cloud deck at 10000 feet AGL
Weather: no significant weather observed at this time

METAR text: EHVK 242137Z AUTO 15006KT 120V190 9999 SCT015CB SCT054 OVC100 11/10 Q1003 WHT
Conditions at: EHVK (VOLKEL RNLAFB , NL) observed 2137 UTC 24 April 2019
Temperature: 11.0°C (52°F)
Dewpoint: 10.0°C (50°F) [RH = 94%]
Pressure (altimeter): 29.62 inches Hg (1003.0 mb)
Winds: from the SSE (150 degrees) at 7 MPH (6 knots; 3.1 m/s)
Visibility: 6 or more miles (10+ km)
Ceiling: 10000 feet AGL
Clouds: scattered clouds at 1500 feet AGL
scattered clouds at 5400 feet AGL
overcast cloud deck at 10000 feet AGL
Weather: no significant weather observed at this time

METAR text: EHVK 242130Z AUTO 16006KT 120V190 9999 -RA BKN015CB SCT047 BKN052 BKN059 11/10 Q1004 WHT
Conditions at: EHVK (VOLKEL RNLAFB , NL) observed 2130 UTC 24 April 2019
Temperature: 11.0°C (52°F)
Dewpoint: 10.0°C (50°F) [RH = 94%]
Pressure (altimeter): 29.65 inches Hg (1004.0 mb)
Winds: from the SSE (160 degrees) at 7 MPH (6 knots; 3.1 m/s)
Visibility: 6 or more miles (10+ km)
Ceiling: 1500 feet AGL
Clouds: broken clouds at 1500 feet AGL
scattered clouds at 4700 feet AGL
broken clouds at 5200 feet AGL
broken clouds at 5900 feet AGL
Weather: -RA  (light rain)

METAR text: EHVK 242126Z AUTO 15006KT 110V180 9999 -RA BKN015CB BKN049 OVC054 11/10 Q1004 WHT
Conditions at: EHVK (VOLKEL RNLAFB , NL) observed 2126 UTC 24 April 2019
Temperature: 11.0°C (52°F)
Dewpoint: 10.0°C (50°F) [RH = 94%]
Pressure (altimeter): 29.65 inches Hg (1004.0 mb)
Winds: from the SSE (150 degrees) at 7 MPH (6 knots; 3.1 m/s)
Visibility: 6 or more miles (10+ km)
Ceiling: 1500 feet AGL
Clouds: broken clouds at 1500 feet AGL
broken clouds at 4900 feet AGL
overcast cloud deck at 5400 feet AGL
Weather: -RA  (light rain)

METAR text: EHVK 242125Z AUTO 15007KT 110V180 9999 -RA BKN015CB BKN050 OVC057 11/10 Q1004 WHT
Conditions at: EHVK (VOLKEL RNLAFB , NL) observed 2125 UTC 24 April 2019
Temperature: 11.0°C (52°F)
Dewpoint: 10.0°C (50°F) [RH = 94%]
Pressure (altimeter): 29.65 inches Hg (1004.0 mb)
Winds: from the SSE (150 degrees) at 8 MPH (7 knots; 3.6 m/s)
Visibility: 6 or more miles (10+ km)
Ceiling: 1500 feet AGL
Clouds: broken clouds at 1500 feet AGL
broken clouds at 5000 feet AGL
overcast cloud deck at 5700 feet AGL
Weather: -RA  (light rain)

METAR text: EHVK 242104Z AUTO 14008KT 100V160 9999 -SHRA SCT015CB SCT052 BKN059 11/10 Q1004 WHT
Conditions at: EHVK (VOLKEL RNLAFB , NL) observed 2104 UTC 24 April 2019
Temperature: 11.0°C (52°F)
Dewpoint: 10.0°C (50°F) [RH = 94%]
Pressure (altimeter): 29.65 inches Hg (1004.0 mb)
Winds: from the SE (140 degrees) at 9 MPH (8 knots; 4.1 m/s)
Visibility: 6 or more miles (10+ km)
Ceiling: 5900 feet AGL
Clouds: scattered clouds at 1500 feet AGL
scattered clouds at 5200 feet AGL
broken clouds at 5900 feet AGL
Weather: -SHRA  (light rain showers)

METAR text: EHVK 242055Z AUTO 14007KT 110V170 9999 -RA SCT064 OVC070 11/10 Q1004 RERA BLU
Conditions at: EHVK (VOLKEL RNLAFB , NL) observed 2055 UTC 24 April 2019
Temperature: 11.0°C (52°F)
Dewpoint: 10.0°C (50°F) [RH = 94%]
Pressure (altimeter): 29.65 inches Hg (1004.0 mb)
Winds: from the SE (140 degrees) at 8 MPH (7 knots; 3.6 m/s)
Visibility: 6 or more miles (10+ km)
Ceiling: 7000 feet AGL
Clouds: scattered clouds at 6400 feet AGL
overcast cloud deck at 7000 feet AGL
Weather: -RA  (light rain)

METAR text: EHVK 242046Z AUTO 15008KT 110V190 9999 -SHRA BKN015CB SCT060 OVC067 11/10 Q1004 WHT
Conditions at: EHVK (VOLKEL RNLAFB , NL) observed 2046 UTC 24 April 2019
Temperature: 11.0°C (52°F)
Dewpoint: 10.0°C (50°F) [RH = 94%]
Pressure (altimeter): 29.65 inches Hg (1004.0 mb)
Winds: from the SSE (150 degrees) at 9 MPH (8 knots; 4.1 m/s)
Visibility: 6 or more miles (10+ km)
Ceiling: 1500 feet AGL
Clouds: broken clouds at 1500 feet AGL
scattered clouds at 6000 feet AGL
overcast cloud deck at 6700 feet AGL
Weather: -SHRA  (light rain showers)

METAR text: EHVK 242045Z AUTO 16007KT 120V200 9999 -SHRA BKN015CB BKN061 OVC067 11/10 Q1004 WHT
Conditions at: EHVK (VOLKEL RNLAFB , NL) observed 2045 UTC 24 April 2019
Temperature: 11.0°C (52°F)
Dewpoint: 10.0°C (50°F) [RH = 94%]
Pressure (altimeter): 29.65 inches Hg (1004.0 mb)
Winds: from the SSE (160 degrees) at 8 MPH (7 knots; 3.6 m/s)
Visibility: 6 or more miles (10+ km)
Ceiling: 1500 feet AGL
Clouds: broken clouds at 1500 feet AGL
broken clouds at 6100 feet AGL
overcast cloud deck at 6700 feet AGL
Weather: -SHRA  (light rain showers)

METAR text: EHVK 242041Z AUTO 17008KT 130V200 9999 RA BKN056/// OVC062/// 11/10 Q1004 BLU
Conditions at: EHVK (VOLKEL RNLAFB , NL) observed 2041 UTC 24 April 2019
Temperature: 11.0°C (52°F)
Dewpoint: 10.0°C (50°F) [RH = 94%]
Pressure (altimeter): 29.65 inches Hg (1004.0 mb)
Winds: from the S (170 degrees) at 9 MPH (8 knots; 4.1 m/s)
Visibility: 6 or more miles (10+ km)
Ceiling: 5600 feet AGL
Clouds: broken clouds at 5600 feet AGL
overcast cloud deck at 6200 feet AGL
Weather: RA  (moderate rain)

METAR text: EHVK 242034Z AUTO 17007KT 140V210 9999 RA BKN015CB BKN058 OVC063 11/10 Q1004 WHT
Conditions at: EHVK (VOLKEL RNLAFB , NL) observed 2034 UTC 24 April 2019
Temperature: 11.0°C (52°F)
Dewpoint: 10.0°C (50°F) [RH = 94%]
Pressure (altimeter): 29.65 inches Hg (1004.0 mb)
Winds: from the S (170 degrees) at 8 MPH (7 knots; 3.6 m/s)
Visibility: 6 or more miles (10+ km)
Ceiling: 1500 feet AGL
Clouds: broken clouds at 1500 feet AGL
broken clouds at 5800 feet AGL
overcast cloud deck at 6300 feet AGL
Weather: RA  (moderate rain)

METAR text: EHVK 242030Z AUTO 17008KT 140V220 9999 RA BKN015CB BKN058 OVC065 11/10 Q1004 WHT
Conditions at: EHVK (VOLKEL RNLAFB , NL) observed 2030 UTC 24 April 2019
Temperature: 11.0°C (52°F)
Dewpoint: 10.0°C (50°F) [RH = 94%]
Pressure (altimeter): 29.65 inches Hg (1004.0 mb)
Winds: from the S (170 degrees) at 9 MPH (8 knots; 4.1 m/s)
Visibility: 6 or more miles (10+ km)
Ceiling: 1500 feet AGL
Clouds: broken clouds at 1500 feet AGL
broken clouds at 5800 feet AGL
overcast cloud deck at 6500 feet AGL
Weather: RA  (moderate rain)

METAR text: EHVK 242026Z AUTO 17009KT 140V220 9999 -SHRA BKN015CB BKN064 OVC070 11/10 Q1004 WHT
Conditions at: EHVK (VOLKEL RNLAFB , NL) observed 2026 UTC 24 April 2019
Temperature: 11.0°C (52°F)
Dewpoint: 10.0°C (50°F) [RH = 94%]
Pressure (altimeter): 29.65 inches Hg (1004.0 mb)
Winds: from the S (170 degrees) at 10 MPH (9 knots; 4.6 m/s)
Visibility: 6 or more miles (10+ km)
Ceiling: 1500 feet AGL
Clouds: broken clouds at 1500 feet AGL
broken clouds at 6400 feet AGL
overcast cloud deck at 7000 feet AGL
Weather: -SHRA  (light rain showers)

METAR text: EHVK 242025Z AUTO 17009KT 140V210 9999 -RA BKN015CB BKN064 OVC070 11/10 Q1004 WHT
Conditions at: EHVK (VOLKEL RNLAFB , NL) observed 2025 UTC 24 April 2019
Temperature: 11.0°C (52°F)
Dewpoint: 10.0°C (50°F) [RH = 94%]
Pressure (altimeter): 29.65 inches Hg (1004.0 mb)
Winds: from the S (170 degrees) at 10 MPH (9 knots; 4.6 m/s)
Visibility: 6 or more miles (10+ km)
Ceiling: 1500 feet AGL
Clouds: broken clouds at 1500 feet AGL
broken clouds at 6400 feet AGL
overcast cloud deck at 7000 feet AGL
Weather: -RA  (light rain)

METAR text: EHVK 242017Z AUTO 19009KT 160V240 9999 SHRA SCT015CB SCT063 OVC072 11/10 Q1003 WHT
Conditions at: EHVK (VOLKEL RNLAFB , NL) observed 2017 UTC 24 April 2019
Temperature: 11.0°C (52°F)
Dewpoint: 10.0°C (50°F) [RH = 94%]
Pressure (altimeter): 29.62 inches Hg (1003.0 mb)
Winds: from the S (190 degrees) at 10 MPH (9 knots; 4.6 m/s)
Visibility: 6 or more miles (10+ km)
Ceiling: 7200 feet AGL
Clouds: scattered clouds at 1500 feet AGL
scattered clouds at 6300 feet AGL
overcast cloud deck at 7200 feet AGL
Weather: SHRA  (rain showers)

METAR text: EHVK 242013Z AUTO 19009KT 160V240 9999 RA FEW015CB OVC071 11/10 Q1003 BLU
Conditions at: EHVK (VOLKEL RNLAFB , NL) observed 2013 UTC 24 April 2019
Temperature: 11.0°C (52°F)
Dewpoint: 10.0°C (50°F) [RH = 94%]
Pressure (altimeter): 29.62 inches Hg (1003.0 mb)
Winds: from the S (190 degrees) at 10 MPH (9 knots; 4.6 m/s)
Visibility: 6 or more miles (10+ km)
Ceiling: 7100 feet AGL
Clouds: few clouds at 1500 feet AGL
overcast cloud deck at 7100 feet AGL
Weather: RA  (moderate rain)

METAR text: EHVK 242007Z AUTO 19009KT 160V240 9999 -RA SCT015CB BKN068 OVC074 12/10 Q1003 WHT
Conditions at: EHVK (VOLKEL RNLAFB , NL) observed 2007 UTC 24 April 2019
Temperature: 12.0°C (54°F)
Dewpoint: 10.0°C (50°F) [RH = 88%]
Pressure (altimeter): 29.62 inches Hg (1003.0 mb)
Winds: from the S (190 degrees) at 10 MPH (9 knots; 4.6 m/s)
Visibility: 6 or more miles (10+ km)
Ceiling: 6800 feet AGL
Clouds: scattered clouds at 1500 feet AGL
broken clouds at 6800 feet AGL
overcast cloud deck at 7400 feet AGL
Weather: -RA  (light rain)

METAR text: EHVK 241955Z AUTO 19009KT 160V230 9999 -SHRA FEW063 BKN068 OVC074 12/10 Q1003 REDZ BLU
Conditions at: EHVK (VOLKEL RNLAFB , NL) observed 1955 UTC 24 April 2019
Temperature: 12.0°C (54°F)
Dewpoint: 10.0°C (50°F) [RH = 88%]
Pressure (altimeter): 29.62 inches Hg (1003.0 mb)
Winds: from the S (190 degrees) at 10 MPH (9 knots; 4.6 m/s)
Visibility: 6 or more miles (10+ km)
Ceiling: 6800 feet AGL
Clouds: few clouds at 6300 feet AGL
broken clouds at 6800 feet AGL
overcast cloud deck at 7400 feet AGL
Weather: -SHRA  (light rain showers)

METAR text: EHVK 241941Z AUTO 20009KT 140V240 9999 -RA BKN061 OVC067 12/10 Q1003 BLU
Conditions at: EHVK (VOLKEL RNLAFB , NL) observed 1941 UTC 24 April 2019
Temperature: 12.0°C (54°F)
Dewpoint: 10.0°C (50°F) [RH = 88%]
Pressure (altimeter): 29.62 inches Hg (1003.0 mb)
Winds: from the SSW (200 degrees) at 10 MPH (9 knots; 4.6 m/s)
Visibility: 6 or more miles (10+ km)
Ceiling: 6100 feet AGL
Clouds: broken clouds at 6100 feet AGL
overcast cloud deck at 6700 feet AGL
Weather: -RA  (light rain)

METAR text: EHVK 241936Z AUTO 20010KT 140V240 9999 DZ FEW015CB OVC065 12/10 Q1003 BLU
Conditions at: EHVK (VOLKEL RNLAFB , NL) observed 1936 UTC 24 April 2019
Temperature: 12.0°C (54°F)
Dewpoint: 10.0°C (50°F) [RH = 88%]
Pressure (altimeter): 29.62 inches Hg (1003.0 mb)
Winds: from the SSW (200 degrees) at 12 MPH (10 knots; 5.1 m/s)
Visibility: 6 or more miles (10+ km)
Ceiling: 6500 feet AGL
Clouds: few clouds at 1500 feet AGL
overcast cloud deck at 6500 feet AGL
Weather: DZ  (moderate drizzle)

METAR text: EHVK 241929Z AUTO 21008KT 9999 -SHRA SCT015CB BKN069 OVC076 12/10 Q1003 WHT
Conditions at: EHVK (VOLKEL RNLAFB , NL) observed 1929 UTC 24 April 2019
Temperature: 12.0°C (54°F)
Dewpoint: 10.0°C (50°F) [RH = 88%]
Pressure (altimeter): 29.62 inches Hg (1003.0 mb)
Winds: from the SSW (210 degrees) at 9 MPH (8 knots; 4.1 m/s)
Visibility: 6 or more miles (10+ km)
Ceiling: 6900 feet AGL
Clouds: scattered clouds at 1500 feet AGL
broken clouds at 6900 feet AGL
overcast cloud deck at 7600 feet AGL
Weather: -SHRA  (light rain showers)

METAR text: EHVK 241925Z AUTO 21009KT 190V250 9999 -SHRA BKN015CB BKN069 OVC076 12/10 Q1003 WHT
Conditions at: EHVK (VOLKEL RNLAFB , NL) observed 1925 UTC 24 April 2019
Temperature: 12.0°C (54°F)
Dewpoint: 10.0°C (50°F) [RH = 88%]
Pressure (altimeter): 29.62 inches Hg (1003.0 mb)
Winds: from the SSW (210 degrees) at 10 MPH (9 knots; 4.6 m/s)
Visibility: 6 or more miles (10+ km)
Ceiling: 1500 feet AGL
Clouds: broken clouds at 1500 feet AGL
broken clouds at 6900 feet AGL
overcast cloud deck at 7600 feet AGL
Weather: -SHRA  (light rain showers)

METAR text: EHVK 241916Z AUTO 21011KT 180V250 9999 SHRA BKN015CB SCT063 OVC069 12/10 Q1003 WHT
Conditions at: EHVK (VOLKEL RNLAFB , NL) observed 1916 UTC 24 April 2019
Temperature: 12.0°C (54°F)
Dewpoint: 10.0°C (50°F) [RH = 88%]
Pressure (altimeter): 29.62 inches Hg (1003.0 mb)
Winds: from the SSW (210 degrees) at 13 MPH (11 knots; 5.7 m/s)
Visibility: 6 or more miles (10+ km)
Ceiling: 1500 feet AGL
Clouds: broken clouds at 1500 feet AGL
scattered clouds at 6300 feet AGL
overcast cloud deck at 6900 feet AGL
Weather: SHRA  (rain showers)

METAR text: EHVK 241915Z AUTO 20012KT 180V240 9999 RA BKN015CB SCT063 OVC068 12/10 Q1003 WHT
Conditions at: EHVK (VOLKEL RNLAFB , NL) observed 1915 UTC 24 April 2019
Temperature: 12.0°C (54°F)
Dewpoint: 10.0°C (50°F) [RH = 88%]
Pressure (altimeter): 29.62 inches Hg (1003.0 mb)
Winds: from the SSW (200 degrees) at 14 MPH (12 knots; 6.2 m/s)
Visibility: 6 or more miles (10+ km)
Ceiling: 1500 feet AGL
Clouds: broken clouds at 1500 feet AGL
scattered clouds at 6300 feet AGL
overcast cloud deck at 6800 feet AGL
Weather: RA  (moderate rain)

METAR text: EHVK 241911Z AUTO 20013KT 180V240 9999 -RA BKN015CB BKN063 OVC068 12/10 Q1003 WHT
Conditions at: EHVK (VOLKEL RNLAFB , NL) observed 1911 UTC 24 April 2019
Temperature: 12.0°C (54°F)
Dewpoint: 10.0°C (50°F) [RH = 88%]
Pressure (altimeter): 29.62 inches Hg (1003.0 mb)
Winds: from the SSW (200 degrees) at 15 MPH (13 knots; 6.7 m/s)
Visibility: 6 or more miles (10+ km)
Ceiling: 1500 feet AGL
Clouds: broken clouds at 1500 feet AGL
broken clouds at 6300 feet AGL
overcast cloud deck at 6800 feet AGL
Weather: -RA  (light rain)

METAR text: EHVK 241904Z AUTO 20015KT 160V240 9999 -SHRA BKN015CB BKN064 OVC069 12/10 Q1003 WHT
Conditions at: EHVK (VOLKEL RNLAFB , NL) observed 1904 UTC 24 April 2019
Temperature: 12.0°C (54°F)
Dewpoint: 10.0°C (50°F) [RH = 88%]
Pressure (altimeter): 29.62 inches Hg (1003.0 mb)
Winds: from the SSW (200 degrees) at 17 MPH (15 knots; 7.7 m/s)
Visibility: 6 or more miles (10+ km)
Ceiling: 1500 feet AGL
Clouds: broken clouds at 1500 feet AGL
broken clouds at 6400 feet AGL
overcast cloud deck at 6900 feet AGL
Weather: -SHRA  (light rain showers)

METAR text: EHVK 241903Z AUTO 20015KT 160V240 9999 SHRA BKN015CB SCT064 OVC069 12/10 Q1003 WHT
Conditions at: EHVK (VOLKEL RNLAFB , NL) observed 1903 UTC 24 April 2019
Temperature: 12.0°C (54°F)
Dewpoint: 10.0°C (50°F) [RH = 88%]
Pressure (altimeter): 29.62 inches Hg (1003.0 mb)
Winds: from the SSW (200 degrees) at 17 MPH (15 knots; 7.7 m/s)
Visibility: 6 or more miles (10+ km)
Ceiling: 1500 feet AGL
Clouds: broken clouds at 1500 feet AGL
scattered clouds at 6400 feet AGL
overcast cloud deck at 6900 feet AGL
Weather: SHRA  (rain showers)

METAR text: EHVK 241856Z AUTO 20016KT 170V240 9999 -SHRA BKN015CB SCT064 OVC069 12/10 Q1003 WHT
Conditions at: EHVK (VOLKEL RNLAFB , NL) observed 1856 UTC 24 April 2019
Temperature: 12.0°C (54°F)
Dewpoint: 10.0°C (50°F) [RH = 88%]
Pressure (altimeter): 29.62 inches Hg (1003.0 mb)
Winds: from the SSW (200 degrees) at 18 MPH (16 knots; 8.2 m/s)
Visibility: 6 or more miles (10+ km)
Ceiling: 1500 feet AGL
Clouds: broken clouds at 1500 feet AGL
scattered clouds at 6400 feet AGL
overcast cloud deck at 6900 feet AGL
Weather: -SHRA  (light rain showers)

METAR text: EHVK 241855Z AUTO 19016KT 150V240 9999 -SHRA BKN015CB SCT065 OVC071 12/10 Q1003 WHT
Conditions at: EHVK (VOLKEL RNLAFB , NL) observed 1855 UTC 24 April 2019
Temperature: 12.0°C (54°F)
Dewpoint: 10.0°C (50°F) [RH = 88%]
Pressure (altimeter): 29.62 inches Hg (1003.0 mb)
Winds: from the S (190 degrees) at 18 MPH (16 knots; 8.2 m/s)
Visibility: 6 or more miles (10+ km)
Ceiling: 1500 feet AGL
Clouds: broken clouds at 1500 feet AGL
scattered clouds at 6500 feet AGL
overcast cloud deck at 7100 feet AGL
Weather: -SHRA  (light rain showers)

METAR text: EHVK 241829Z AUTO 20020KT 160V240 9999 -SHRA SCT015CB OVC060 13/10 Q1002 WHT
Conditions at: EHVK (VOLKEL RNLAFB , NL) observed 1829 UTC 24 April 2019
Temperature: 13.0°C (55°F)
Dewpoint: 10.0°C (50°F) [RH = 82%]
Pressure (altimeter): 29.59 inches Hg (1002.0 mb)
Winds: from the SSW (200 degrees) at 23 MPH (20 knots; 10.3 m/s)
Visibility: 6 or more miles (10+ km)
Ceiling: 6000 feet AGL
Clouds: scattered clouds at 1500 feet AGL
overcast cloud deck at 6000 feet AGL
Weather: -SHRA  (light rain showers)

METAR text: EHVK 241825Z AUTO 21020KT 160V240 9999 -RA FEW015CB OVC059 13/10 Q1001 RERA REDZ BLU
Conditions at: EHVK (VOLKEL RNLAFB , NL) observed 1825 UTC 24 April 2019
Temperature: 13.0°C (55°F)
Dewpoint: 10.0°C (50°F) [RH = 82%]
Pressure (altimeter): 29.56 inches Hg (1001.0 mb)
Winds: from the SSW (210 degrees) at 23 MPH (20 knots; 10.3 m/s)
Visibility: 6 or more miles (10+ km)
Ceiling: 5900 feet AGL
Clouds: few clouds at 1500 feet AGL
overcast cloud deck at 5900 feet AGL
Weather: -RA  (light rain)

METAR text: EHVK 241811Z AUTO 20021KT 160V250 9999 -RA FEW018CB BKN056 OVC062 14/09 Q1001 BLU
Conditions at: EHVK (VOLKEL RNLAFB , NL) observed 1811 UTC 24 April 2019
Temperature: 14.0°C (57°F)
Dewpoint: 9.0°C (48°F) [RH = 72%]
Pressure (altimeter): 29.56 inches Hg (1001.0 mb)
Winds: from the SSW (200 degrees) at 24 MPH (21 knots; 10.8 m/s)
Visibility: 6 or more miles (10+ km)
Ceiling: 5600 feet AGL
Clouds: few clouds at 1800 feet AGL
broken clouds at 5600 feet AGL
overcast cloud deck at 6200 feet AGL
Weather: -RA  (light rain)

METAR text: EHVK 241756Z AUTO 21020KT 170V260 9999 -RADZ SCT028 SCT034 BKN060 15/10 Q1000 BLU
Conditions at: EHVK (VOLKEL RNLAFB , NL) observed 1756 UTC 24 April 2019
Temperature: 15.0°C (59°F)
Dewpoint: 10.0°C (50°F) [RH = 72%]
Pressure (altimeter): 29.53 inches Hg (1000.0 mb)
Winds: from the SSW (210 degrees) at 23 MPH (20 knots; 10.3 m/s)
Visibility: 6 or more miles (10+ km)
Ceiling: 6000 feet AGL
Clouds: scattered clouds at 2800 feet AGL
scattered clouds at 3400 feet AGL
broken clouds at 6000 feet AGL
Weather: -RA -DZ  (light rain, light drizzle)

METAR text: EHVK 241755Z AUTO 21022KT 170V250 9999 -RA FEW022CB SCT061 OVC068 15/10 Q1000 RERA REDZ BLU
Conditions at: EHVK (VOLKEL RNLAFB , NL) observed 1755 UTC 24 April 2019
Temperature: 15.0°C (59°F)
Dewpoint: 10.0°C (50°F) [RH = 72%]
Pressure (altimeter): 29.53 inches Hg (1000.0 mb)
Winds: from the SSW (210 degrees) at 25 MPH (22 knots; 11.3 m/s)
Visibility: 6 or more miles (10+ km)
Ceiling: 6800 feet AGL
Clouds: few clouds at 2200 feet AGL
scattered clouds at 6100 feet AGL
overcast cloud deck at 6800 feet AGL
Weather: -RA  (light rain)

METAR text: EHVK 241726Z AUTO 22019KT 170V260 9999 DZ FEW028CB OVC067 19/12 Q0999 BLU
Conditions at: EHVK (VOLKEL RNLAFB , NL) observed 1726 UTC 24 April 2019
Temperature: 19.0°C (66°F)
Dewpoint: 12.0°C (54°F) [RH = 64%]
Pressure (altimeter): 29.50 inches Hg (999.0 mb)
Winds: from the SW (220 degrees) at 22 MPH (19 knots; 9.8 m/s)
Visibility: 6 or more miles (10+ km)
Ceiling: 6700 feet AGL
Clouds: few clouds at 2800 feet AGL
overcast cloud deck at 6700 feet AGL
Weather: DZ  (moderate drizzle)

METAR text: EHVK 241725Z AUTO 23017G28KT 200V260 9999 -RADZ OVC067 19/11 Q0999 BLU
Conditions at: EHVK (VOLKEL RNLAFB , NL) observed 1725 UTC 24 April 2019
Temperature: 19.0°C (66°F)
Dewpoint: 11.0°C (52°F) [RH = 60%]
Pressure (altimeter): 29.50 inches Hg (999.0 mb)
Winds: from the SW (230 degrees) at 20 MPH (17 knots; 8.7 m/s)
gusting to 32 MPH (28 knots; 14.4 m/s)
Visibility: 6 or more miles (10+ km)
Ceiling: 6700 feet AGL
Clouds: overcast cloud deck at 6700 feet AGL
Weather: -RA -DZ  (light rain, light drizzle)

METAR text: EHVK 241714Z AUTO 22016KT 180V260 9999 OVC073 20/10 Q0999 BLU
Conditions at: EHVK (VOLKEL RNLAFB , NL) observed 1714 UTC 24 April 2019
Temperature: 20.0°C (68°F)
Dewpoint: 10.0°C (50°F) [RH = 53%]
Pressure (altimeter): 29.50 inches Hg (999.0 mb)
Winds: from the SW (220 degrees) at 18 MPH (16 knots; 8.2 m/s)
Visibility: 6 or more miles (10+ km)
Ceiling: 7300 feet AGL
Clouds: overcast cloud deck at 7300 feet AGL
Weather: no significant weather observed at this time

METAR text: EHVK 241655Z AUTO 21014KT 160V260 9999 TS FEW061CB BKN077 BKN083 OVC100 22/07 Q0998 BLU
Conditions at: EHVK (VOLKEL RNLAFB , NL) observed 1655 UTC 24 April 2019
Temperature: 22.0°C (72°F)
Dewpoint: 7.0°C (45°F) [RH = 38%]
Pressure (altimeter): 29.47 inches Hg (998.0 mb)
Winds: from the SSW (210 degrees) at 16 MPH (14 knots; 7.2 m/s)
Visibility: 6 or more miles (10+ km)
Ceiling: 7700 feet AGL
Clouds: few clouds at 6100 feet AGL
broken clouds at 7700 feet AGL
broken clouds at 8300 feet AGL
overcast cloud deck at 10000 feet AGL
Weather: TS  (thunderstorm)

METAR text: EHVK 241625Z AUTO 20013KT 160V250 9999 FEW078 OVC091 23/07 Q0998 BLU
Conditions at: EHVK (VOLKEL RNLAFB , NL) observed 1625 UTC 24 April 2019
Temperature: 23.0°C (73°F)
Dewpoint: 7.0°C (45°F) [RH = 36%]
Pressure (altimeter): 29.47 inches Hg (998.0 mb)
Winds: from the SSW (200 degrees) at 15 MPH (13 knots; 6.7 m/s)
Visibility: 6 or more miles (10+ km)
Ceiling: 9100 feet AGL
Clouds: few clouds at 7800 feet AGL
overcast cloud deck at 9100 feet AGL
Weather: no significant weather observed at this time

METAR text: EHVK 241555Z AUTO 21016KT 180V260 9999 FEW088 BKN110 BKN310 23/07 Q0998 BLU
Conditions at: EHVK (VOLKEL RNLAFB , NL) observed 1555 UTC 24 April 2019
Temperature: 23.0°C (73°F)
Dewpoint: 7.0°C (45°F) [RH = 36%]
Pressure (altimeter): 29.47 inches Hg (998.0 mb)
Winds: from the SSW (210 degrees) at 18 MPH (16 knots; 8.2 m/s)
Visibility: 6 or more miles (10+ km)
Ceiling: 11000 feet AGL
Clouds: few clouds at 8800 feet AGL
broken clouds at 11000 feet AGL
broken clouds at 31000 feet AGL
Weather: no significant weather observed at this time

METAR text: EHVK 241525Z AUTO 19015KT 130V240 9999 FEW077 SCT093 OVC100 24/07 Q0998 BLU
Conditions at: EHVK (VOLKEL RNLAFB , NL) observed 1525 UTC 24 April 2019
Temperature: 24.0°C (75°F)
Dewpoint: 7.0°C (45°F) [RH = 34%]
Pressure (altimeter): 29.47 inches Hg (998.0 mb)
Winds: from the S (190 degrees) at 17 MPH (15 knots; 7.7 m/s)
Visibility: 6 or more miles (10+ km)
Ceiling: 10000 feet AGL
Clouds: few clouds at 7700 feet AGL
scattered clouds at 9300 feet AGL
overcast cloud deck at 10000 feet AGL
Weather: no significant weather observed at this time

METAR text: EHVK 241455Z AUTO 18012KT 150V240 9999 FEW093 SCT099 OVC100 25/07 Q0998 BLU
Conditions at: EHVK (VOLKEL RNLAFB , NL) observed 1455 UTC 24 April 2019
Temperature: 25.0°C (77°F)
Dewpoint: 7.0°C (45°F) [RH = 32%]
Pressure (altimeter): 29.47 inches Hg (998.0 mb)
Winds: from the S (180 degrees) at 14 MPH (12 knots; 6.2 m/s)
Visibility: 6 or more miles (10+ km)
Ceiling: 10000 feet AGL
Clouds: few clouds at 9300 feet AGL
scattered clouds at 9900 feet AGL
overcast cloud deck at 10000 feet AGL
Weather: no significant weather observed at this time

METAR text: EHVK 241425Z AUTO 18012KT 160V250 9999 FEW076 SCT082 BKN098 25/07 Q0998 BLU
Conditions at: EHVK (VOLKEL RNLAFB , NL) observed 1425 UTC 24 April 2019
Temperature: 25.0°C (77°F)
Dewpoint: 7.0°C (45°F) [RH = 32%]
Pressure (altimeter): 29.47 inches Hg (998.0 mb)
Winds: from the S (180 degrees) at 14 MPH (12 knots; 6.2 m/s)
Visibility: 6 or more miles (10+ km)
Ceiling: 9800 feet AGL
Clouds: few clouds at 7600 feet AGL
scattered clouds at 8200 feet AGL
broken clouds at 9800 feet AGL
Weather: no significant weather observed at this time

METAR text: EHVK 241421Z AUTO 18013KT 160V250 9999 FEW076 SCT082 BKN093 25/07 Q0998 BLU
Conditions at: EHVK (VOLKEL RNLAFB , NL) observed 1421 UTC 24 April 2019
Temperature: 25.0°C (77°F)
Dewpoint: 7.0°C (45°F) [RH = 32%]
Pressure (altimeter): 29.47 inches Hg (998.0 mb)
Winds: from the S (180 degrees) at 15 MPH (13 knots; 6.7 m/s)
Visibility: 6 or more miles (10+ km)
Ceiling: 9300 feet AGL
Clouds: few clouds at 7600 feet AGL
scattered clouds at 8200 feet AGL
broken clouds at 9300 feet AGL
Weather: no significant weather observed at this time

METAR text: EHVK 241355Z AUTO 18012KT 130V210 9999 FEW074 SCT081 BKN270 26/07 Q0998 BLU 17015G25KT CAVOK
Conditions at: EHVK (VOLKEL RNLAFB , NL) observed 1355 UTC 24 April 2019
Temperature: 26.0°C (79°F)
Dewpoint: 7.0°C (45°F) [RH = 30%]
Pressure (altimeter): 29.47 inches Hg (998.0 mb)
Winds: from the S (180 degrees) at 14 MPH (12 knots; 6.2 m/s)
Visibility: 6 or more miles (10+ km)
Ceiling: 27000 feet AGL
Clouds: few clouds at 7400 feet AGL
scattered clouds at 8100 feet AGL
broken clouds at 27000 feet AGL
Weather: no significant weather observed at this time

METAR text: EHVK 241325Z AUTO 17016KT 130V210 9999 FEW079 SCT086 BKN091 25/07 Q0998 BLU 17015G25KT CAVOK
Conditions at: EHVK (VOLKEL RNLAFB , NL) observed 1325 UTC 24 April 2019
Temperature: 25.0°C (77°F)
Dewpoint: 7.0°C (45°F) [RH = 32%]
Pressure (altimeter): 29.47 inches Hg (998.0 mb)
Winds: from the S (170 degrees) at 18 MPH (16 knots; 8.2 m/s)
Visibility: 6 or more miles (10+ km)
Ceiling: 9100 feet AGL
Clouds: few clouds at 7900 feet AGL
scattered clouds at 8600 feet AGL
broken clouds at 9100 feet AGL
Weather: no significant weather observed at this time

METAR text: EHVK 241255Z AUTO 16014KT 130V220 9999 BKN073 BKN079 24/07 Q0998 BLU 17015G25KT CAVOK
Conditions at: EHVK (VOLKEL RNLAFB , NL) observed 1255 UTC 24 April 2019
Temperature: 24.0°C (75°F)
Dewpoint: 7.0°C (45°F) [RH = 34%]
Pressure (altimeter): 29.47 inches Hg (998.0 mb)
Winds: from the SSE (160 degrees) at 16 MPH (14 knots; 7.2 m/s)
Visibility: 6 or more miles (10+ km)
Ceiling: 7300 feet AGL
Clouds: broken clouds at 7300 feet AGL
broken clouds at 7900 feet AGL
Weather: no significant weather observed at this time

METAR text: EHVK 241225Z AUTO 16015G25KT 130V220 9999 FEW068 25/08 Q0998 BLU 17015G25KT CAVOK
Conditions at: EHVK (VOLKEL RNLAFB , NL) observed 1225 UTC 24 April 2019
Temperature: 25.0°C (77°F)
Dewpoint: 8.0°C (46°F) [RH = 34%]
Pressure (altimeter): 29.47 inches Hg (998.0 mb)
Winds: from the SSE (160 degrees) at 17 MPH (15 knots; 7.7 m/s)
gusting to 29 MPH (25 knots; 12.9 m/s)
Visibility: 6 or more miles (10+ km)
Ceiling: at least 12,000 feet AGL
Clouds: few clouds at 6800 feet AGL
Weather: no significant weather observed at this time

METAR text: EHVK 241155Z AUTO 16014KT 140V230 9999 NCD 24/08 Q0998 BLU 17015G25KT CAVOK
Conditions at: EHVK (VOLKEL RNLAFB , NL) observed 1155 UTC 24 April 2019
Temperature: 24.0°C (75°F)
Dewpoint: 8.0°C (46°F) [RH = 36%]
Pressure (altimeter): 29.47 inches Hg (998.0 mb)
Winds: from the SSE (160 degrees) at 16 MPH (14 knots; 7.2 m/s)
Visibility: 6 or more miles (10+ km)
Ceiling: at least 12,000 feet AGL
Clouds: sky clear below 12,000 feet AGL
Weather: no significant weather observed at this time

METAR text: EHVK 241145Z AUTO 17013KT 110V210 9999 NCD 24/08 Q0998 BLU 17015G25KT CAVOK
Conditions at: EHVK (VOLKEL RNLAFB , NL) observed 1145 UTC 24 April 2019
Temperature: 24.0°C (75°F)
Dewpoint: 8.0°C (46°F) [RH = 36%]
Pressure (altimeter): 29.47 inches Hg (998.0 mb)
Winds: from the S (170 degrees) at 15 MPH (13 knots; 6.7 m/s)
Visibility: 6 or more miles (10+ km)
Ceiling: at least 12,000 feet AGL
Clouds: sky clear below 12,000 feet AGL
Weather: no significant weather observed at this time

METAR text: EHVK 241125Z AUTO 16015KT 120V210 9999 FEW059 23/08 Q0999 BLU 17015G25KT CAVOK
Conditions at: EHVK (VOLKEL RNLAFB , NL) observed 1125 UTC 24 April 2019
Temperature: 23.0°C (73°F)
Dewpoint: 8.0°C (46°F) [RH = 38%]
Pressure (altimeter): 29.50 inches Hg (999.0 mb)
Winds: from the SSE (160 degrees) at 17 MPH (15 knots; 7.7 m/s)
Visibility: 6 or more miles (10+ km)
Ceiling: at least 12,000 feet AGL
Clouds: few clouds at 5900 feet AGL
Weather: no significant weather observed at this time

METAR text: EHVK 241055Z AUTO 18017KT 120V220 9999 FEW061 BKN140 24/09 Q0999 BLU 17015G25KT CAVOK
Conditions at: EHVK (VOLKEL RNLAFB , NL) observed 1055 UTC 24 April 2019
Temperature: 24.0°C (75°F)
Dewpoint: 9.0°C (48°F) [RH = 38%]
Pressure (altimeter): 29.50 inches Hg (999.0 mb)
Winds: from the S (180 degrees) at 20 MPH (17 knots; 8.7 m/s)
Visibility: 6 or more miles (10+ km)
Ceiling: 14000 feet AGL
Clouds: few clouds at 6100 feet AGL
broken clouds at 14000 feet AGL
Weather: no significant weather observed at this time

METAR text: EHVK 241051Z AUTO 18017KT 120V220 9999 FEW061 SCT140 24/09 Q0999 BLU 17015G25KT CAVOK
Conditions at: EHVK (VOLKEL RNLAFB , NL) observed 1051 UTC 24 April 2019
Temperature: 24.0°C (75°F)
Dewpoint: 9.0°C (48°F) [RH = 38%]
Pressure (altimeter): 29.50 inches Hg (999.0 mb)
Winds: from the S (180 degrees) at 20 MPH (17 knots; 8.7 m/s)
Visibility: 6 or more miles (10+ km)
Ceiling: at least 12,000 feet AGL
Clouds: few clouds at 6100 feet AGL
scattered clouds at 14000 feet AGL
Weather: no significant weather observed at this time

METAR text: EHVK 241025Z AUTO 17016G29KT 120V200 9999 FEW058 23/08 Q0998 BLU 16010G20KT CAVOK
Conditions at: EHVK (VOLKEL RNLAFB , NL) observed 1025 UTC 24 April 2019
Temperature: 23.0°C (73°F)
Dewpoint: 8.0°C (46°F) [RH = 38%]
Pressure (altimeter): 29.47 inches Hg (998.0 mb)
Winds: from the S (170 degrees) at 18 MPH (16 knots; 8.2 m/s)
gusting to 33 MPH (29 knots; 14.9 m/s)
Visibility: 6 or more miles (10+ km)
Ceiling: at least 12,000 feet AGL
Clouds: few clouds at 5800 feet AGL
Weather: no significant weather observed at this time

METAR text: EHVK 240955Z AUTO 15010KT 110V210 9999 NCD 23/11 Q0998 BLU 16010G20KT CAVOK
Conditions at: EHVK (VOLKEL RNLAFB , NL) observed 0955 UTC 24 April 2019
Temperature: 23.0°C (73°F)
Dewpoint: 11.0°C (52°F) [RH = 47%]
Pressure (altimeter): 29.47 inches Hg (998.0 mb)
Winds: from the SSE (150 degrees) at 12 MPH (10 knots; 5.1 m/s)
Visibility: 6 or more miles (10+ km)
Ceiling: at least 12,000 feet AGL
Clouds: sky clear below 12,000 feet AGL
Weather: no significant weather observed at this time

METAR text: EHVK 240933Z AUTO 15012KT 100V160 9999 FEW120 22/11 Q0998 BLU 16010G20KT CAVOK
Conditions at: EHVK (VOLKEL RNLAFB , NL) observed 0933 UTC 24 April 2019
Temperature: 22.0°C (72°F)
Dewpoint: 11.0°C (52°F) [RH = 50%]
Pressure (altimeter): 29.47 inches Hg (998.0 mb)
Winds: from the SSE (150 degrees) at 14 MPH (12 knots; 6.2 m/s)
Visibility: 6 or more miles (10+ km)
Ceiling: at least 12,000 feet AGL
Clouds: few clouds at 12000 feet AGL
Weather: no significant weather observed at this time

METAR text: EHVK 240925Z AUTO 14012KT 110V180 9999 NCD 22/10 Q0998 BLU 15006KT CAVOK BECMG 16010G20KT
Conditions at: EHVK (VOLKEL RNLAFB , NL) observed 0925 UTC 24 April 2019
Temperature: 22.0°C (72°F)
Dewpoint: 10.0°C (50°F) [RH = 46%]
Pressure (altimeter): 29.47 inches Hg (998.0 mb)
Winds: from the SE (140 degrees) at 14 MPH (12 knots; 6.2 m/s)
Visibility: 6 or more miles (10+ km)
Ceiling: at least 12,000 feet AGL
Clouds: sky clear below 12,000 feet AGL
Weather: no significant weather observed at this time

METAR text: EHVK 240855Z AUTO 15011KT 120V190 9999 BKN079 BKN085 BKN095 20/10 Q0999 BLU 15006KT CAVOK BECMG 16010G20KT
Conditions at: EHVK (VOLKEL RNLAFB , NL) observed 0855 UTC 24 April 2019
Temperature: 20.0°C (68°F)
Dewpoint: 10.0°C (50°F) [RH = 53%]
Pressure (altimeter): 29.50 inches Hg (999.0 mb)
Winds: from the SSE (150 degrees) at 13 MPH (11 knots; 5.7 m/s)
Visibility: 6 or more miles (10+ km)
Ceiling: 7900 feet AGL
Clouds: broken clouds at 7900 feet AGL
broken clouds at 8500 feet AGL
broken clouds at 9500 feet AGL
Weather: no significant weather observed at this time

METAR text: EHVK 240825Z AUTO 14009KT 110V180 9999 BKN080 OVC086 19/11 Q0999 BLU 15006KT CAVOK BECMG 16010G20KT
Conditions at: EHVK (VOLKEL RNLAFB , NL) observed 0825 UTC 24 April 2019
Temperature: 19.0°C (66°F)
Dewpoint: 11.0°C (52°F) [RH = 60%]
Pressure (altimeter): 29.50 inches Hg (999.0 mb)
Winds: from the SE (140 degrees) at 10 MPH (9 knots; 4.6 m/s)
Visibility: 6 or more miles (10+ km)
Ceiling: 8000 feet AGL
Clouds: broken clouds at 8000 feet AGL
overcast cloud deck at 8600 feet AGL
Weather: no significant weather observed at this time

METAR text: EHVK 240755Z AUTO 14008KT 110V180 9999 FEW078 SCT085 BKN091 18/11 Q0998 BLU 15006KT CAVOK BECMG 16010G20KT
Conditions at: EHVK (VOLKEL RNLAFB , NL) observed 0755 UTC 24 April 2019
Temperature: 18.0°C (64°F)
Dewpoint: 11.0°C (52°F) [RH = 64%]
Pressure (altimeter): 29.47 inches Hg (998.0 mb)
Winds: from the SE (140 degrees) at 9 MPH (8 knots; 4.1 m/s)
Visibility: 6 or more miles (10+ km)
Ceiling: 9100 feet AGL
Clouds: few clouds at 7800 feet AGL
scattered clouds at 8500 feet AGL
broken clouds at 9100 feet AGL
Weather: no significant weather observed at this time

METAR text: EHVK 240725Z AUTO 14007KT 110V180 9999 FEW076 BKN081 BKN087 17/10 Q0998 BLU 15006KT CAVOK BECMG 16010G20KT
Conditions at: EHVK (VOLKEL RNLAFB , NL) observed 0725 UTC 24 April 2019
Temperature: 17.0°C (63°F)
Dewpoint: 10.0°C (50°F) [RH = 63%]
Pressure (altimeter): 29.47 inches Hg (998.0 mb)
Winds: from the SE (140 degrees) at 8 MPH (7 knots; 3.6 m/s)
Visibility: 6 or more miles (10+ km)
Ceiling: 8100 feet AGL
Clouds: few clouds at 7600 feet AGL
broken clouds at 8100 feet AGL
broken clouds at 8700 feet AGL
Weather: no significant weather observed at this time

METAR text: EHVK 240655Z AUTO 14007KT 9999 FEW083 SCT089 OVC100 16/10 Q0998 BLU 15006KT CAVOK BECMG 16010G20KT
Conditions at: EHVK (VOLKEL RNLAFB , NL) observed 0655 UTC 24 April 2019
Temperature: 16.0°C (61°F)
Dewpoint: 10.0°C (50°F) [RH = 68%]
Pressure (altimeter): 29.47 inches Hg (998.0 mb)
Winds: from the SE (140 degrees) at 8 MPH (7 knots; 3.6 m/s)
Visibility: 6 or more miles (10+ km)
Ceiling: 10000 feet AGL
Clouds: few clouds at 8300 feet AGL
scattered clouds at 8900 feet AGL
overcast cloud deck at 10000 feet AGL
Weather: no significant weather observed at this time

METAR text: EHVK 240625Z AUTO 12005KT 090V160 9999 OVC083 15/10 Q0998 BLU 15006KT CAVOK BECMG 16010G20KT
Conditions at: EHVK (VOLKEL RNLAFB , NL) observed 0625 UTC 24 April 2019
Temperature: 15.0°C (59°F)
Dewpoint: 10.0°C (50°F) [RH = 72%]
Pressure (altimeter): 29.47 inches Hg (998.0 mb)
Winds: from the ESE (120 degrees) at 6 MPH (5 knots; 2.6 m/s)
Visibility: 6 or more miles (10+ km)
Ceiling: 8300 feet AGL
Clouds: overcast cloud deck at 8300 feet AGL
Weather: no significant weather observed at this time

METAR text: EHVK 240607Z AUTO 12004KT 070V160 9999 OVC086 14/10 Q0998 BLU 15006KT CAVOK BECMG 16010G20KT
Conditions at: EHVK (VOLKEL RNLAFB , NL) observed 0607 UTC 24 April 2019
Temperature: 14.0°C (57°F)
Dewpoint: 10.0°C (50°F) [RH = 77%]
Pressure (altimeter): 29.47 inches Hg (998.0 mb)
Winds: from the ESE (120 degrees) at 5 MPH (4 knots; 2.1 m/s)
Visibility: 6 or more miles (10+ km)
Ceiling: 8600 feet AGL
Clouds: overcast cloud deck at 8600 feet AGL
Weather: no significant weather observed at this time

METAR text: EHVK 240606Z AUTO 12005KT 070V160 9999 OVC086 14/10 Q0998 BLU 15006KT CAVOK BECMG 16011KT
Conditions at: EHVK (VOLKEL RNLAFB , NL) observed 0606 UTC 24 April 2019
Temperature: 14.0°C (57°F)
Dewpoint: 10.0°C (50°F) [RH = 77%]
Pressure (altimeter): 29.47 inches Hg (998.0 mb)
Winds: from the ESE (120 degrees) at 6 MPH (5 knots; 2.6 m/s)
Visibility: 6 or more miles (10+ km)
Ceiling: 8600 feet AGL
Clouds: overcast cloud deck at 8600 feet AGL
Weather: no significant weather observed at this time

METAR text: EHVK 240555Z AUTO 14005KT 110V170 9999 OVC085 14/09 Q0998 BLU
Conditions at: EHVK (VOLKEL RNLAFB , NL) observed 0555 UTC 24 April 2019
Temperature: 14.0°C (57°F)
Dewpoint: 9.0°C (48°F) [RH = 72%]
Pressure (altimeter): 29.47 inches Hg (998.0 mb)
Winds: from the SE (140 degrees) at 6 MPH (5 knots; 2.6 m/s)
Visibility: 6 or more miles (10+ km)
Ceiling: 8500 feet AGL
Clouds: overcast cloud deck at 8500 feet AGL
Weather: no significant weather observed at this time

METAR text: EHVK 240525Z AUTO 13004KT 100V160 9999 FEW063 BKN097 OVC100 13/09 Q0997 BLU
Conditions at: EHVK (VOLKEL RNLAFB , NL) observed 0525 UTC 24 April 2019
Temperature: 13.0°C (55°F)
Dewpoint: 9.0°C (48°F) [RH = 77%]
Pressure (altimeter): 29.44 inches Hg (997.0 mb)
Winds: from the SE (130 degrees) at 5 MPH (4 knots; 2.1 m/s)
Visibility: 6 or more miles (10+ km)
Ceiling: 9700 feet AGL
Clouds: few clouds at 6300 feet AGL
broken clouds at 9700 feet AGL
overcast cloud deck at 10000 feet AGL
Weather: no significant weather observed at this time

METAR text: EHVK 240455Z AUTO 13003KT 9999 FEW130 12/08 Q0997 BLU
Conditions at: EHVK (VOLKEL RNLAFB , NL) observed 0455 UTC 24 April 2019
Temperature: 12.0°C (54°F)
Dewpoint: 8.0°C (46°F) [RH = 76%]
Pressure (altimeter): 29.44 inches Hg (997.0 mb)
Winds: from the SE (130 degrees) at 3 MPH (3 knots; 1.5 m/s)
Visibility: 6 or more miles (10+ km)
Ceiling: at least 12,000 feet AGL
Clouds: few clouds at 13000 feet AGL
Weather: no significant weather observed at this time

METAR text: EHVK 240425Z AUTO 14003KT 9999 BKN320 12/08 Q0997 BLU
Conditions at: EHVK (VOLKEL RNLAFB , NL) observed 0425 UTC 24 April 2019
Temperature: 12.0°C (54°F)
Dewpoint: 8.0°C (46°F) [RH = 76%]
Pressure (altimeter): 29.44 inches Hg (997.0 mb)
Winds: from the SE (140 degrees) at 3 MPH (3 knots; 1.5 m/s)
Visibility: 6 or more miles (10+ km)
Ceiling: 32000 feet AGL
Clouds: broken clouds at 32000 feet AGL
Weather: no significant weather observed at this time

METAR text: EHVK 240355Z AUTO 15003KT 9999 OVC110 13/08 Q0997 BLU
Conditions at: EHVK (VOLKEL RNLAFB , NL) observed 0355 UTC 24 April 2019
Temperature: 13.0°C (55°F)
Dewpoint: 8.0°C (46°F) [RH = 72%]
Pressure (altimeter): 29.44 inches Hg (997.0 mb)
Winds: from the SSE (150 degrees) at 3 MPH (3 knots; 1.5 m/s)
Visibility: 6 or more miles (10+ km)
Ceiling: 11000 feet AGL
Clouds: overcast cloud deck at 11000 feet AGL
Weather: no significant weather observed at this time

METAR text: EHVK 240337Z AUTO 15004KT 9999 FEW100/// OVC270/// 13/08 Q0997 BLU
Conditions at: EHVK (VOLKEL RNLAFB , NL) observed 0337 UTC 24 April 2019
Temperature: 13.0°C (55°F)
Dewpoint: 8.0°C (46°F) [RH = 72%]
Pressure (altimeter): 29.44 inches Hg (997.0 mb)
Winds: from the SSE (150 degrees) at 5 MPH (4 knots; 2.1 m/s)
Visibility: 6 or more miles (10+ km)
Ceiling: 27000 feet AGL
Clouds: few clouds at 10000 feet AGL
overcast cloud deck at 27000 feet AGL
Weather: no significant weather observed at this time

METAR text: EHVK 240325Z AUTO 15005KT 9999 FEW100 SCT270 13/08 Q0997 BLU
Conditions at: EHVK (VOLKEL RNLAFB , NL) observed 0325 UTC 24 April 2019
Temperature: 13.0°C (55°F)
Dewpoint: 8.0°C (46°F) [RH = 72%]
Pressure (altimeter): 29.44 inches Hg (997.0 mb)
Winds: from the SSE (150 degrees) at 6 MPH (5 knots; 2.6 m/s)
Visibility: 6 or more miles (10+ km)
Ceiling: at least 12,000 feet AGL
Clouds: few clouds at 10000 feet AGL
scattered clouds at 27000 feet AGL
Weather: no significant weather observed at this time

METAR text: EHVK 240255Z AUTO 15005KT 9999 OVC240 13/09 Q0997 BLU
Conditions at: EHVK (VOLKEL RNLAFB , NL) observed 0255 UTC 24 April 2019
Temperature: 13.0°C (55°F)
Dewpoint: 9.0°C (48°F) [RH = 77%]
Pressure (altimeter): 29.44 inches Hg (997.0 mb)
Winds: from the SSE (150 degrees) at 6 MPH (5 knots; 2.6 m/s)
Visibility: 6 or more miles (10+ km)
Ceiling: 24000 feet AGL
Clouds: overcast cloud deck at 24000 feet AGL
Weather: no significant weather observed at this time

METAR text: EHVK 240225Z AUTO 15004KT 9999 OVC190 14/09 Q0997 BLU
Conditions at: EHVK (VOLKEL RNLAFB , NL) observed 0225 UTC 24 April 2019
Temperature: 14.0°C (57°F)
Dewpoint: 9.0°C (48°F) [RH = 72%]
Pressure (altimeter): 29.44 inches Hg (997.0 mb)
Winds: from the SSE (150 degrees) at 5 MPH (4 knots; 2.1 m/s)
Visibility: 6 or more miles (10+ km)
Ceiling: 19000 feet AGL
Clouds: overcast cloud deck at 19000 feet AGL
Weather: no significant weather observed at this time

METAR text: EHVK 240155Z AUTO 15004KT 9999 OVC150 14/09 Q0997 BLU
Conditions at: EHVK (VOLKEL RNLAFB , NL) observed 0155 UTC 24 April 2019
Temperature: 14.0°C (57°F)
Dewpoint: 9.0°C (48°F) [RH = 72%]
Pressure (altimeter): 29.44 inches Hg (997.0 mb)
Winds: from the SSE (150 degrees) at 5 MPH (4 knots; 2.1 m/s)
Visibility: 6 or more miles (10+ km)
Ceiling: 15000 feet AGL
Clouds: overcast cloud deck at 15000 feet AGL
Weather: no significant weather observed at this time

METAR text: EHVK 240125Z AUTO 15005KT 9999 OVC140 15/09 Q0997 BLU
Conditions at: EHVK (VOLKEL RNLAFB , NL) observed 0125 UTC 24 April 2019
Temperature: 15.0°C (59°F)
Dewpoint: 9.0°C (48°F) [RH = 67%]
Pressure (altimeter): 29.44 inches Hg (997.0 mb)
Winds: from the SSE (150 degrees) at 6 MPH (5 knots; 2.6 m/s)
Visibility: 6 or more miles (10+ km)
Ceiling: 14000 feet AGL
Clouds: overcast cloud deck at 14000 feet AGL
Weather: no significant weather observed at this time

METAR text: EHVK 240055Z AUTO 14004KT 9999 OVC110 15/09 Q0996 BLU
Conditions at: EHVK (VOLKEL RNLAFB , NL) observed 0055 UTC 24 April 2019
Temperature: 15.0°C (59°F)
Dewpoint: 9.0°C (48°F) [RH = 67%]
Pressure (altimeter): 29.41 inches Hg (996.0 mb)
Winds: from the SE (140 degrees) at 5 MPH (4 knots; 2.1 m/s)
Visibility: 6 or more miles (10+ km)
Ceiling: 11000 feet AGL
Clouds: overcast cloud deck at 11000 feet AGL
Weather: no significant weather observed at this time

METAR text: EHVK 240038Z AUTO 14003KT 9999 OVC110 14/09 Q0996 BLU
Conditions at: EHVK (VOLKEL RNLAFB , NL) observed 0038 UTC 24 April 2019
Temperature: 14.0°C (57°F)
Dewpoint: 9.0°C (48°F) [RH = 72%]
Pressure (altimeter): 29.41 inches Hg (996.0 mb)
Winds: from the SE (140 degrees) at 3 MPH (3 knots; 1.5 m/s)
Visibility: 6 or more miles (10+ km)
Ceiling: 11000 feet AGL
Clouds: overcast cloud deck at 11000 feet AGL
Weather: no significant weather observed at this time

METAR text: EHVK 240025Z AUTO 14003KT 9999 OVC110 13/09 Q0997 BLU
Conditions at: EHVK (VOLKEL RNLAFB , NL) observed 0025 UTC 24 April 2019
Temperature: 13.0°C (55°F)
Dewpoint: 9.0°C (48°F) [RH = 77%]
Pressure (altimeter): 29.44 inches Hg (997.0 mb)
Winds: from the SE (140 degrees) at 3 MPH (3 knots; 1.5 m/s)
Visibility: 6 or more miles (10+ km)
Ceiling: 11000 feet AGL
Clouds: overcast cloud deck at 11000 feet AGL
Weather: no significant weather observed at this time

METAR text: EHVK 232355Z AUTO 10002KT 9999 OVC110 13/08 Q0996 BLU
Conditions at: EHVK (VOLKEL RNLAFB , NL) observed 2355 UTC 23 April 2019
Temperature: 13.0°C (55°F)
Dewpoint: 8.0°C (46°F) [RH = 72%]
Pressure (altimeter): 29.41 inches Hg (996.0 mb)
Winds: from the E (100 degrees) at 2 MPH (2 knots; 1.0 m/s)
Visibility: 6 or more miles (10+ km)
Ceiling: 11000 feet AGL
Clouds: overcast cloud deck at 11000 feet AGL
Weather: no significant weather observed at this time

METAR text: EHVK 232325Z AUTO 09003KT 9999 OVC130 13/09 Q0996 BLU
Conditions at: EHVK (VOLKEL RNLAFB , NL) observed 2325 UTC 23 April 2019
Temperature: 13.0°C (55°F)
Dewpoint: 9.0°C (48°F) [RH = 77%]
Pressure (altimeter): 29.41 inches Hg (996.0 mb)
Winds: from the E (90 degrees) at 3 MPH (3 knots; 1.5 m/s)
Visibility: 6 or more miles (10+ km)
Ceiling: 13000 feet AGL
Clouds: overcast cloud deck at 13000 feet AGL
Weather: no significant weather observed at this time

METAR text: EHVK 232255Z AUTO 10004KT 090V220 9999 OVC130 12/08 Q0996 BLU
Conditions at: EHVK (VOLKEL RNLAFB , NL) observed 2255 UTC 23 April 2019
Temperature: 12.0°C (54°F)
Dewpoint: 8.0°C (46°F) [RH = 76%]
Pressure (altimeter): 29.41 inches Hg (996.0 mb)
Winds: from the E (100 degrees) at 5 MPH (4 knots; 2.1 m/s)
Visibility: 6 or more miles (10+ km)
Ceiling: 13000 feet AGL
Clouds: overcast cloud deck at 13000 feet AGL
Weather: no significant weather observed at this time

METAR text: EHVK 232225Z AUTO 11005KT 100V190 9999 SCT150 OVC220 14/09 Q0996 BLU
Conditions at: EHVK (VOLKEL RNLAFB , NL) observed 2225 UTC 23 April 2019
Temperature: 14.0°C (57°F)
Dewpoint: 9.0°C (48°F) [RH = 72%]
Pressure (altimeter): 29.41 inches Hg (996.0 mb)
Winds: from the ESE (110 degrees) at 6 MPH (5 knots; 2.6 m/s)
Visibility: 6 or more miles (10+ km)
Ceiling: 22000 feet AGL
Clouds: scattered clouds at 15000 feet AGL
overcast cloud deck at 22000 feet AGL
Weather: no significant weather observed at this time

METAR text: EHVK 232155Z AUTO 09004KT 9999 OVC250 13/08 Q0996 BLU
Conditions at: EHVK (VOLKEL RNLAFB , NL) observed 2155 UTC 23 April 2019
Temperature: 13.0°C (55°F)
Dewpoint: 8.0°C (46°F) [RH = 72%]
Pressure (altimeter): 29.41 inches Hg (996.0 mb)
Winds: from the E (90 degrees) at 5 MPH (4 knots; 2.1 m/s)
Visibility: 6 or more miles (10+ km)
Ceiling: 25000 feet AGL
Clouds: overcast cloud deck at 25000 feet AGL
Weather: no significant weather observed at this time

METAR text: EHVK 232125Z AUTO 07004KT 9999 OVC240 14/08 Q0996 BLU
Conditions at: EHVK (VOLKEL RNLAFB , NL) observed 2125 UTC 23 April 2019
Temperature: 14.0°C (57°F)
Dewpoint: 8.0°C (46°F) [RH = 67%]
Pressure (altimeter): 29.41 inches Hg (996.0 mb)
Winds: from the ENE (70 degrees) at 5 MPH (4 knots; 2.1 m/s)
Visibility: 6 or more miles (10+ km)
Ceiling: 24000 feet AGL
Clouds: overcast cloud deck at 24000 feet AGL
Weather: no significant weather observed at this time

METAR text: EHVK 232055Z AUTO 08004KT 9999 OVC250 15/09 Q0996 BLU
Conditions at: EHVK (VOLKEL RNLAFB , NL) observed 2055 UTC 23 April 2019
Temperature: 15.0°C (59°F)
Dewpoint: 9.0°C (48°F) [RH = 67%]
Pressure (altimeter): 29.41 inches Hg (996.0 mb)
Winds: from the E (80 degrees) at 5 MPH (4 knots; 2.1 m/s)
Visibility: 6 or more miles (10+ km)
Ceiling: 25000 feet AGL
Clouds: overcast cloud deck at 25000 feet AGL
Weather: no significant weather observed at this time

METAR text: EHVK 232025Z AUTO 07004KT 050V120 9999 OVC260 15/09 Q0996 BLU
Conditions at: EHVK (VOLKEL RNLAFB , NL) observed 2025 UTC 23 April 2019
Temperature: 15.0°C (59°F)
Dewpoint: 9.0°C (48°F) [RH = 67%]
Pressure (altimeter): 29.41 inches Hg (996.0 mb)
Winds: from the ENE (70 degrees) at 5 MPH (4 knots; 2.1 m/s)
Visibility: 6 or more miles (10+ km)
Ceiling: 26000 feet AGL
Clouds: overcast cloud deck at 26000 feet AGL
Weather: no significant weather observed at this time

METAR text: EHVK 231955Z AUTO 07005KT 9999 OVC260 14/09 Q0996 BLU
Conditions at: EHVK (VOLKEL RNLAFB , NL) observed 1955 UTC 23 April 2019
Temperature: 14.0°C (57°F)
Dewpoint: 9.0°C (48°F) [RH = 72%]
Pressure (altimeter): 29.41 inches Hg (996.0 mb)
Winds: from the ENE (70 degrees) at 6 MPH (5 knots; 2.6 m/s)
Visibility: 6 or more miles (10+ km)
Ceiling: 26000 feet AGL
Clouds: overcast cloud deck at 26000 feet AGL
Weather: no significant weather observed at this time

METAR text: EHVK 231925Z AUTO 05005KT 9999 OVC270 16/09 Q0996 BLU
Conditions at: EHVK (VOLKEL RNLAFB , NL) observed 1925 UTC 23 April 2019
Temperature: 16.0°C (61°F)
Dewpoint: 9.0°C (48°F) [RH = 63%]
Pressure (altimeter): 29.41 inches Hg (996.0 mb)
Winds: from the NE (50 degrees) at 6 MPH (5 knots; 2.6 m/s)
Visibility: 6 or more miles (10+ km)
Ceiling: 27000 feet AGL
Clouds: overcast cloud deck at 27000 feet AGL
Weather: no significant weather observed at this time

METAR text: EHVK 231855Z AUTO 06005KT 9999 OVC280 16/09 Q0996 BLU
Conditions at: EHVK (VOLKEL RNLAFB , NL) observed 1855 UTC 23 April 2019
Temperature: 16.0°C (61°F)
Dewpoint: 9.0°C (48°F) [RH = 63%]
Pressure (altimeter): 29.41 inches Hg (996.0 mb)
Winds: from the ENE (60 degrees) at 6 MPH (5 knots; 2.6 m/s)
Visibility: 6 or more miles (10+ km)
Ceiling: 28000 feet AGL
Clouds: overcast cloud deck at 28000 feet AGL
Weather: no significant weather observed at this time

METAR text: EHVK 231825Z AUTO 08005KT 9999 OVC280 17/09 Q0996 BLU
Conditions at: EHVK (VOLKEL RNLAFB , NL) observed 1825 UTC 23 April 2019
Temperature: 17.0°C (63°F)
Dewpoint: 9.0°C (48°F) [RH = 59%]
Pressure (altimeter): 29.41 inches Hg (996.0 mb)
Winds: from the E (80 degrees) at 6 MPH (5 knots; 2.6 m/s)
Visibility: 6 or more miles (10+ km)
Ceiling: 28000 feet AGL
Clouds: overcast cloud deck at 28000 feet AGL
Weather: no significant weather observed at this time

METAR text: EHVK 231755Z AUTO 08008KT 060V130 9999 OVC300 19/08 Q0996 BLU
Conditions at: EHVK (VOLKEL RNLAFB , NL) observed 1755 UTC 23 April 2019
Temperature: 19.0°C (66°F)
Dewpoint: 8.0°C (46°F) [RH = 49%]
Pressure (altimeter): 29.41 inches Hg (996.0 mb)
Winds: from the E (80 degrees) at 9 MPH (8 knots; 4.1 m/s)
Visibility: 6 or more miles (10+ km)
Ceiling: 30000 feet AGL
Clouds: overcast cloud deck at 30000 feet AGL
Weather: no significant weather observed at this time

METAR text: EHVK 231725Z AUTO 07010KT 040V100 9999 OVC290 20/08 Q0996 BLU
Conditions at: EHVK (VOLKEL RNLAFB , NL) observed 1725 UTC 23 April 2019
Temperature: 20.0°C (68°F)
Dewpoint: 8.0°C (46°F) [RH = 46%]
Pressure (altimeter): 29.41 inches Hg (996.0 mb)
Winds: from the ENE (70 degrees) at 12 MPH (10 knots; 5.1 m/s)
Visibility: 6 or more miles (10+ km)
Ceiling: 29000 feet AGL
Clouds: overcast cloud deck at 29000 feet AGL
Weather: no significant weather observed at this time

METAR text: EHVK 231655Z AUTO 07012KT 050V110 9999 OVC290 20/08 Q0996 BLU
Conditions at: EHVK (VOLKEL RNLAFB , NL) observed 1655 UTC 23 April 2019
Temperature: 20.0°C (68°F)
Dewpoint: 8.0°C (46°F) [RH = 46%]
Pressure (altimeter): 29.41 inches Hg (996.0 mb)
Winds: from the ENE (70 degrees) at 14 MPH (12 knots; 6.2 m/s)
Visibility: 6 or more miles (10+ km)
Ceiling: 29000 feet AGL
Clouds: overcast cloud deck at 29000 feet AGL
Weather: no significant weather observed at this time

METAR text: EHVK 231625Z AUTO 08012KT 040V110 9999 OVC280 20/08 Q0996 BLU
Conditions at: EHVK (VOLKEL RNLAFB , NL) observed 1625 UTC 23 April 2019
Temperature: 20.0°C (68°F)
Dewpoint: 8.0°C (46°F) [RH = 46%]
Pressure (altimeter): 29.41 inches Hg (996.0 mb)
Winds: from the E (80 degrees) at 14 MPH (12 knots; 6.2 m/s)
Visibility: 6 or more miles (10+ km)
Ceiling: 28000 feet AGL
Clouds: overcast cloud deck at 28000 feet AGL
Weather: no significant weather observed at this time

METAR text: EHVK 231555Z AUTO 09012KT 050V120 9999 OVC290 21/07 Q0996 BLU
Conditions at: EHVK (VOLKEL RNLAFB , NL) observed 1555 UTC 23 April 2019
Temperature: 21.0°C (70°F)
Dewpoint: 7.0°C (45°F) [RH = 40%]
Pressure (altimeter): 29.41 inches Hg (996.0 mb)
Winds: from the E (90 degrees) at 14 MPH (12 knots; 6.2 m/s)
Visibility: 6 or more miles (10+ km)
Ceiling: 29000 feet AGL
Clouds: overcast cloud deck at 29000 feet AGL
Weather: no significant weather observed at this time

METAR text: EHVK 231525Z AUTO 08014KT 050V120 9999 OVC290 21/07 Q0997 BLU
Conditions at: EHVK (VOLKEL RNLAFB , NL) observed 1525 UTC 23 April 2019
Temperature: 21.0°C (70°F)
Dewpoint: 7.0°C (45°F) [RH = 40%]
Pressure (altimeter): 29.44 inches Hg (997.0 mb)
Winds: from the E (80 degrees) at 16 MPH (14 knots; 7.2 m/s)
Visibility: 6 or more miles (10+ km)
Ceiling: 29000 feet AGL
Clouds: overcast cloud deck at 29000 feet AGL
Weather: no significant weather observed at this time

METAR text: EHVK 231455Z AUTO 09012KT 050V140 9999 OVC290 21/07 Q0997 BLU
Conditions at: EHVK (VOLKEL RNLAFB , NL) observed 1455 UTC 23 April 2019
Temperature: 21.0°C (70°F)
Dewpoint: 7.0°C (45°F) [RH = 40%]
Pressure (altimeter): 29.44 inches Hg (997.0 mb)
Winds: from the E (90 degrees) at 14 MPH (12 knots; 6.2 m/s)
Visibility: 6 or more miles (10+ km)
Ceiling: 29000 feet AGL
Clouds: overcast cloud deck at 29000 feet AGL
Weather: no significant weather observed at this time

METAR text: EHVK 231425Z AUTO 09013KT 040V140 9999 OVC310 21/07 Q0997 BLU
Conditions at: EHVK (VOLKEL RNLAFB , NL) observed 1425 UTC 23 April 2019
Temperature: 21.0°C (70°F)
Dewpoint: 7.0°C (45°F) [RH = 40%]
Pressure (altimeter): 29.44 inches Hg (997.0 mb)
Winds: from the E (90 degrees) at 15 MPH (13 knots; 6.7 m/s)
Visibility: 6 or more miles (10+ km)
Ceiling: 31000 feet AGL
Clouds: overcast cloud deck at 31000 feet AGL
Weather: no significant weather observed at this time

METAR text: EHVK 231417Z AUTO 08014KT 060V140 9999 OVC310 21/07 Q0997 BLU
Conditions at: EHVK (VOLKEL RNLAFB , NL) observed 1417 UTC 23 April 2019
Temperature: 21.0°C (70°F)
Dewpoint: 7.0°C (45°F) [RH = 40%]
Pressure (altimeter): 29.44 inches Hg (997.0 mb)
Winds: from the E (80 degrees) at 16 MPH (14 knots; 7.2 m/s)
Visibility: 6 or more miles (10+ km)
Ceiling: 31000 feet AGL
Clouds: overcast cloud deck at 31000 feet AGL
Weather: no significant weather observed at this time

METAR text: EHVK 231355Z AUTO 10012KT 050V130 9999 OVC280 21/07 Q0997 BLU 08012KT CAVOK
Conditions at: EHVK (VOLKEL RNLAFB , NL) observed 1355 UTC 23 April 2019
Temperature: 21.0°C (70°F)
Dewpoint: 7.0°C (45°F) [RH = 40%]
Pressure (altimeter): 29.44 inches Hg (997.0 mb)
Winds: from the E (100 degrees) at 14 MPH (12 knots; 6.2 m/s)
Visibility: 6 or more miles (10+ km)
Ceiling: 28000 feet AGL
Clouds: overcast cloud deck at 28000 feet AGL
Weather: no significant weather observed at this time

METAR text: EHVK 231325Z AUTO 09013KT 050V130 9999 OVC280 21/07 Q0998 BLU 08012KT CAVOK
Conditions at: EHVK (VOLKEL RNLAFB , NL) observed 1325 UTC 23 April 2019
Temperature: 21.0°C (70°F)
Dewpoint: 7.0°C (45°F) [RH = 40%]
Pressure (altimeter): 29.47 inches Hg (998.0 mb)
Winds: from the E (90 degrees) at 15 MPH (13 knots; 6.7 m/s)
Visibility: 6 or more miles (10+ km)
Ceiling: 28000 feet AGL
Clouds: overcast cloud deck at 28000 feet AGL
Weather: no significant weather observed at this time

METAR text: EHVK 231255Z AUTO 08014KT 040V130 9999 OVC260 20/06 Q0998 BLU 08012KT CAVOK
Conditions at: EHVK (VOLKEL RNLAFB , NL) observed 1255 UTC 23 April 2019
Temperature: 20.0°C (68°F)
Dewpoint: 6.0°C (43°F) [RH = 40%]
Pressure (altimeter): 29.47 inches Hg (998.0 mb)
Winds: from the E (80 degrees) at 16 MPH (14 knots; 7.2 m/s)
Visibility: 6 or more miles (10+ km)
Ceiling: 26000 feet AGL
Clouds: overcast cloud deck at 26000 feet AGL
Weather: no significant weather observed at this time

METAR text: EHVK 231225Z AUTO 07015KT 040V100 9999 OVC260 20/06 Q0998 BLU 08012KT CAVOK
Conditions at: EHVK (VOLKEL RNLAFB , NL) observed 1225 UTC 23 April 2019
Temperature: 20.0°C (68°F)
Dewpoint: 6.0°C (43°F) [RH = 40%]
Pressure (altimeter): 29.47 inches Hg (998.0 mb)
Winds: from the ENE (70 degrees) at 17 MPH (15 knots; 7.7 m/s)
Visibility: 6 or more miles (10+ km)
Ceiling: 26000 feet AGL
Clouds: overcast cloud deck at 26000 feet AGL
Weather: no significant weather observed at this time

Forecast for: EHVK (VOLKEL RNLAFB , NL)
Text: TAF EHVK 242028Z 2421/2509 17009KT CAVOK
Forecast period: 2100 UTC 24 April 2019 to 0900 UTC 25 April 2019
Forecast type: FROM: standard forecast or significant change
Winds: from the S (170 degrees) at 10 MPH (9 knots; 4.6 m/s)
Visibility: 6 or more miles 10+ km)
Ceiling: unknown
Clouds: missing
Weather: NSW  (no significant weather)
Text: TEMPO 2121/2422 FEW030 SCT050CB BKN070
Forecast period: 2100 UTC 21 April 2019 to 2200 UTC 24 April 2019
Forecast type: TEMPORARY: The following changes expected for less than half the time period
Visibility: missing
Ceiling: 7000 feet AGL
Clouds: few clouds at 3000 feet AGL
scattered clouds at 5000 feet AGL
broken clouds at 7000 feet AGL
Weather: no significant weather forecast for this period